createdAt,value
2023-03-07T00:00:08.298Z,22.02
2023-03-07T00:02:38.140Z,21.30
2023-03-07T00:05:12.529Z,21.67
2023-03-07T00:07:42.121Z,23.13
2023-03-07T00:10:13.580Z,21.00
2023-03-07T00:12:43.230Z,19.42
2023-03-07T00:15:14.107Z,21.08
2023-03-07T00:17:43.902Z,20.13
2023-03-07T00:20:17.053Z,19.05
2023-03-07T00:22:47.882Z,20.23
2023-03-07T00:25:17.830Z,22.77
2023-03-07T00:27:47.386Z,15.05
2023-03-07T00:30:17.107Z,16.58
2023-03-07T00:32:46.723Z,17.70
2023-03-07T00:35:18.901Z,16.10
2023-03-07T00:37:48.477Z,18.52
2023-03-07T00:40:18.436Z,20.67
2023-03-07T00:42:48.042Z,17.65
2023-03-07T00:45:17.860Z,18.05
2023-03-07T00:47:47.461Z,16.85
2023-03-07T00:50:19.899Z,17.75
2023-03-07T00:52:49.577Z,15.75
2023-03-07T00:55:20.470Z,13.23
2023-03-07T00:57:50.065Z,13.68
2023-03-07T01:00:20.262Z,14.35
2023-03-07T01:02:49.872Z,15.25
2023-03-07T01:05:22.381Z,12.55
2023-03-07T01:07:52.431Z,11.77
2023-03-07T01:10:22.047Z,12.95
2023-03-07T01:12:51.576Z,12.52
2023-03-07T01:15:21.343Z,13.25
2023-03-07T01:17:50.923Z,11.27
2023-03-07T01:20:23.484Z,12.95
2023-03-07T01:22:53.261Z,14.95
2023-03-07T01:25:22.947Z,11.90
2023-03-07T01:27:55.563Z,10.35
2023-03-07T01:30:27.925Z,12.35
2023-03-07T01:32:58.746Z,12.05
2023-03-07T01:35:31.858Z,11.48
2023-03-07T01:38:01.517Z,11.80
2023-03-07T01:40:31.231Z,11.93
2023-03-07T01:43:24.014Z,14.13
2023-03-07T01:46:27.395Z,12.45
2023-03-07T01:49:03.853Z,12.65
2023-03-07T01:54:10.361Z,12.98
2023-03-07T01:56:41.827Z,13.15
2023-03-07T01:59:11.600Z,12.85
2023-03-07T02:01:41.819Z,11.30
2023-03-07T02:04:17.939Z,13.32
2023-03-07T02:06:50.445Z,12.32
2023-03-07T02:09:24.187Z,15.00
2023-03-07T02:11:56.898Z,10.20
2023-03-07T02:14:26.768Z,11.25
2023-03-07T02:16:56.590Z,9.70
2023-03-07T02:19:37.986Z,11.05
2023-03-07T02:22:17.460Z,11.10
2023-03-07T02:24:54.084Z,10.27
2023-03-07T02:27:28.193Z,11.43
2023-03-07T02:29:58.080Z,12.13
2023-03-07T02:32:28.471Z,11.55
2023-03-07T02:34:58.306Z,11.48
2023-03-07T02:37:33.162Z,11.23
2023-03-07T02:40:07.542Z,8.70
2023-03-07T02:42:44.236Z,12.65
2023-03-07T02:45:19.576Z,10.02
2023-03-07T02:47:50.185Z,10.93
2023-03-07T02:50:21.210Z,10.35
2023-03-07T02:52:54.500Z,10.63
2023-03-07T02:55:24.113Z,9.82
2023-03-07T02:58:03.162Z,8.68
2023-03-07T03:00:33.184Z,8.27
2023-03-07T03:03:03.465Z,8.63
2023-03-07T03:05:33.241Z,8.27
2023-03-07T03:08:03.200Z,8.15
2023-03-07T03:10:33.286Z,7.00
2023-03-07T03:13:07.571Z,7.47
2023-03-07T03:15:37.592Z,7.13
2023-03-07T03:18:07.132Z,5.18
2023-03-07T03:20:36.943Z,5.07
2023-03-07T03:23:06.627Z,5.13
2023-03-07T03:25:37.049Z,6.40
2023-03-07T03:28:09.970Z,5.47
2023-03-07T03:30:40.302Z,5.80
2023-03-07T03:33:09.893Z,4.45
2023-03-07T03:35:43.688Z,5.47
2023-03-07T03:38:13.379Z,6.85
2023-03-07T03:40:43.078Z,6.72
2023-03-07T03:43:15.445Z,4.97
2023-03-07T03:45:45.306Z,6.90
2023-03-07T03:48:14.906Z,5.00
2023-03-07T03:50:45.808Z,5.05
2023-03-07T03:53:15.376Z,4.72
2023-03-07T03:55:45.537Z,5.65
2023-03-07T03:58:17.971Z,5.18
2023-03-07T04:00:47.634Z,4.13
2023-03-07T04:03:17.220Z,3.78
2023-03-07T04:05:46.780Z,4.50
2023-03-07T04:08:16.365Z,3.88
2023-03-07T04:10:46.188Z,3.63
2023-03-07T04:13:18.553Z,3.42
2023-03-07T04:15:48.214Z,2.75
2023-03-07T04:18:18.713Z,3.60
2023-03-07T04:20:48.467Z,3.20
2023-03-07T04:23:18.053Z,3.22
2023-03-07T04:25:50.696Z,2.83
2023-03-07T04:28:25.251Z,3.42
2023-03-07T04:33:27.457Z,4.65
2023-03-07T04:35:57.082Z,6.05
2023-03-07T04:38:26.750Z,6.43
2023-03-07T04:40:56.603Z,5.63
2023-03-07T04:43:29.013Z,8.20
2023-03-07T04:45:58.644Z,7.28
2023-03-07T04:48:28.337Z,8.00
2023-03-07T04:50:58.468Z,7.93
2023-03-07T04:53:28.780Z,8.40
2023-03-07T04:56:01.296Z,8.60
2023-03-07T04:58:35.639Z,7.47
2023-03-07T05:01:06.948Z,8.93
2023-03-07T05:03:38.929Z,7.78
2023-03-07T05:06:11.786Z,7.78
2023-03-07T05:08:41.914Z,7.32
2023-03-07T05:11:11.537Z,7.93
2023-03-07T05:13:43.859Z,6.10
2023-03-07T05:16:14.778Z,7.53
2023-03-07T05:18:44.439Z,6.28
2023-03-07T05:21:14.050Z,7.75
2023-03-07T05:23:43.857Z,7.57
2023-03-07T05:26:15.239Z,6.68
2023-03-07T05:28:48.170Z,7.95
2023-03-07T05:31:18.698Z,7.97
2023-03-07T05:33:49.088Z,7.82
2023-03-07T05:36:19.688Z,8.43
2023-03-07T05:38:49.314Z,8.50
2023-03-07T05:41:18.969Z,8.30
2023-03-07T05:43:51.690Z,7.55
2023-03-07T05:46:21.561Z,8.00
2023-03-07T05:48:51.177Z,7.82
2023-03-07T05:51:20.787Z,8.20
2023-03-07T05:53:50.786Z,7.32
2023-03-07T05:56:20.822Z,5.68
2023-03-07T05:58:53.258Z,6.00
2023-03-07T06:01:23.029Z,6.00
2023-03-07T06:03:52.705Z,6.15
2023-03-07T06:06:22.708Z,5.15
2023-03-07T06:08:52.316Z,3.75
2023-03-07T06:11:21.938Z,4.13
2023-03-07T06:13:55.912Z,3.97
2023-03-07T06:16:25.609Z,4.15
2023-03-07T06:18:55.441Z,5.05
2023-03-07T06:21:25.378Z,4.68
2023-03-07T06:23:54.998Z,5.15
2023-03-07T06:26:25.698Z,5.22
2023-03-07T06:28:59.523Z,4.22
2023-03-07T06:31:29.911Z,3.55
2023-03-07T06:33:59.828Z,3.67
2023-03-07T06:36:30.324Z,2.70
2023-03-07T06:39:02.906Z,16.45
2023-03-07T06:41:32.639Z,3.65
2023-03-07T06:44:06.897Z,3.47
2023-03-07T06:46:37.254Z,2.90
2023-03-07T06:49:12.818Z,4.22
2023-03-07T06:51:42.562Z,3.58
2023-03-07T06:54:12.300Z,3.25
2023-03-07T06:56:44.857Z,2.72
2023-03-07T06:59:19.684Z,3.65
2023-03-07T07:01:49.688Z,2.60
2023-03-07T07:04:21.143Z,2.53
2023-03-07T07:06:52.008Z,2.20
2023-03-07T07:09:21.790Z,1.90
2023-03-07T07:11:51.756Z,2.05
2023-03-07T07:14:24.853Z,1.88
2023-03-07T07:16:54.463Z,1.98
2023-03-07T07:19:26.541Z,1.90
2023-03-07T07:21:57.268Z,3.42
2023-03-07T07:24:26.987Z,2.20
2023-03-07T07:26:56.824Z,1.58
2023-03-07T07:29:29.104Z,1.52
2023-03-07T07:31:59.084Z,1.13
2023-03-07T07:34:28.696Z,1.60
2023-03-07T07:36:58.956Z,1.42
2023-03-07T07:39:28.520Z,1.17
2023-03-07T07:41:58.166Z,1.25
2023-03-07T07:44:34.619Z,1.20
2023-03-07T07:47:10.895Z,2.28
2023-03-07T07:49:40.516Z,1.67
2023-03-07T07:52:10.188Z,2.35
2023-03-07T07:54:41.605Z,2.40
2023-03-07T07:57:11.215Z,1.88
2023-03-07T07:59:43.513Z,1.50
2023-03-07T08:02:15.852Z,2.63
2023-03-07T08:04:46.147Z,1.17
2023-03-07T08:07:16.654Z,1.10
2023-03-07T08:09:46.277Z,1.20
2023-03-07T08:12:15.905Z,1.80
2023-03-07T08:14:48.116Z,1.45
2023-03-07T08:17:17.686Z,1.98
2023-03-07T08:19:47.793Z,1.25
2023-03-07T08:22:17.432Z,1.05
2023-03-07T08:24:47.661Z,1.10
2023-03-07T08:27:17.214Z,0.98
2023-03-07T08:29:50.924Z,0.73
2023-03-07T08:32:20.493Z,0.60
2023-03-07T08:34:50.376Z,4.68
2023-03-07T08:37:20.034Z,0.70
2023-03-07T08:39:49.948Z,1.20
2023-03-07T08:42:20.464Z,0.82
2023-03-07T08:44:52.657Z,2.28
2023-03-07T08:47:22.198Z,0.80
2023-03-07T08:49:51.822Z,1.38
2023-03-07T08:52:21.427Z,0.68
2023-03-07T08:54:51.174Z,18.05
2023-03-07T08:57:20.984Z,2.28
2023-03-07T08:59:53.210Z,7.18
2023-03-07T09:02:22.789Z,2.40
2023-03-07T09:04:52.438Z,0.68
2023-03-07T09:07:22.252Z,1.67
2023-03-07T09:09:51.784Z,1.13
2023-03-07T09:12:21.333Z,0.75
2023-03-07T09:14:56.172Z,1.63
2023-03-07T09:17:25.795Z,0.57
2023-03-07T09:19:56.613Z,3.95
2023-03-07T09:22:26.180Z,1.70
2023-03-07T09:24:55.787Z,2.60
2023-03-07T09:27:25.342Z,1.80
2023-03-07T09:29:57.541Z,2.00
2023-03-07T09:32:27.210Z,12.30
2023-03-07T09:34:57.002Z,4.05
2023-03-07T09:37:26.625Z,2.83
2023-03-07T09:39:56.241Z,5.38
2023-03-07T09:42:30.575Z,8.07
2023-03-07T09:45:18.945Z,6.97
2023-03-07T09:48:43.974Z,5.88
2023-03-07T09:51:18.371Z,5.85
2023-03-07T09:53:53.339Z,8.13
2023-03-07T09:56:27.436Z,4.60
2023-03-07T09:59:08.514Z,5.97
2023-03-07T10:01:48.414Z,5.25
2023-03-07T10:04:23.643Z,5.13
2023-03-07T10:06:58.596Z,4.22
2023-03-07T10:09:29.241Z,3.20
2023-03-07T10:12:28.849Z,5.53
2023-03-07T10:15:11.796Z,3.50
2023-03-07T10:17:59.515Z,2.13
2023-03-07T10:20:43.057Z,2.90
2023-03-07T10:23:29.104Z,2.58
2023-03-07T10:26:02.899Z,3.30
2023-03-07T10:28:35.372Z,2.78
2023-03-07T10:31:17.457Z,3.38
2023-03-07T10:33:51.694Z,3.20
2023-03-07T10:36:24.218Z,1.70
2023-03-07T10:39:06.501Z,1.60
2023-03-07T10:41:36.102Z,1.38
2023-03-07T10:44:05.696Z,1.70
2023-03-07T10:46:38.033Z,1.88
2023-03-07T10:49:17.729Z,1.48
2023-03-07T10:51:56.527Z,2.03
2023-03-07T10:54:32.154Z,1.88
2023-03-07T10:57:10.871Z,2.38
2023-03-07T10:59:43.601Z,2.25
2023-03-07T11:02:33.222Z,4.25
2023-03-07T11:05:06.420Z,2.90
2023-03-07T11:07:38.051Z,1.60
2023-03-07T11:10:29.965Z,1.40
2023-03-07T11:12:59.599Z,1.00
2023-03-07T11:15:29.211Z,1.40
2023-03-07T11:17:58.746Z,1.65
2023-03-07T11:20:34.443Z,1.92
2023-03-07T11:25:45.872Z,2.17
2023-03-07T11:28:29.985Z,2.78
2023-03-07T11:31:17.856Z,1.27
2023-03-07T11:33:59.445Z,2.70
2023-03-07T11:36:35.200Z,1.95
2023-03-07T11:39:15.611Z,1.80
2023-03-07T11:41:49.964Z,2.33
2023-03-07T11:44:32.552Z,4.70
2023-03-07T11:47:36.686Z,2.35
2023-03-07T11:50:18.297Z,2.67
2023-03-07T11:53:21.829Z,2.42
2023-03-07T11:56:00.725Z,3.40
2023-03-07T11:58:53.177Z,1.80
2023-03-07T12:01:32.829Z,2.75
2023-03-07T12:04:37.257Z,1.08
2023-03-07T12:07:19.768Z,1.73
2023-03-07T12:09:59.610Z,1.65
2023-03-07T12:12:43.394Z,2.40
2023-03-07T12:15:29.502Z,0.98
2023-03-07T12:20:46.174Z,1.45
2023-03-07T12:23:20.597Z,1.10
2023-03-07T12:25:55.675Z,2.30
2023-03-07T12:28:29.693Z,0.93
2023-03-07T12:31:09.500Z,2.08
2023-03-07T12:33:54.120Z,1.02
2023-03-07T12:36:34.179Z,1.33
2023-03-07T12:39:10.855Z,0.93
2023-03-07T12:41:57.884Z,0.88
2023-03-07T12:44:36.268Z,1.38
2023-03-07T12:47:17.731Z,1.48
2023-03-07T12:49:56.027Z,2.65
2023-03-07T12:52:38.500Z,0.60
2023-03-07T12:55:19.151Z,3.53
2023-03-07T12:57:58.738Z,1.30
2023-03-07T13:00:28.917Z,2.55
2023-03-07T13:03:04.410Z,1.60
2023-03-07T13:05:38.680Z,4.32
2023-03-07T13:08:12.701Z,0.88
2023-03-07T13:10:42.994Z,1.15
2023-03-07T13:13:42.616Z,3.38
2023-03-07T13:16:34.362Z,0.88
2023-03-07T13:19:33.886Z,0.85
2023-03-07T13:22:04.094Z,0.82
2023-03-07T13:24:39.483Z,2.50
2023-03-07T13:27:18.410Z,1.35
2023-03-07T13:30:19.703Z,2.15
2023-03-07T13:33:03.022Z,1.13
2023-03-07T13:35:58.369Z,1.38
2023-03-07T13:38:35.630Z,1.35
2023-03-07T13:41:05.904Z,1.20
2023-03-07T13:44:03.971Z,1.48
2023-03-07T13:46:52.030Z,2.15
2023-03-07T13:49:41.799Z,1.35
2023-03-07T13:52:20.349Z,1.25
2023-03-07T13:54:52.509Z,3.83
2023-03-07T13:57:27.089Z,0.95
2023-03-07T13:59:58.106Z,1.38
2023-03-07T14:02:27.660Z,1.10
2023-03-07T14:05:06.009Z,2.63
2023-03-07T14:07:39.893Z,4.70
2023-03-07T14:10:22.464Z,1.42
2023-03-07T14:13:29.593Z,2.15
2023-03-07T14:16:14.127Z,1.75
2023-03-07T14:18:53.981Z,2.15
2023-03-07T14:21:35.593Z,1.23
2023-03-07T14:24:31.108Z,2.65
2023-03-07T14:27:05.531Z,1.35
2023-03-07T14:29:35.361Z,1.08
2023-03-07T14:32:04.961Z,0.85
2023-03-07T14:34:36.934Z,1.05
2023-03-07T14:37:14.138Z,0.35
2023-03-07T14:39:55.488Z,0.90
2023-03-07T14:42:32.935Z,0.90
2023-03-07T14:45:19.667Z,1.20
2023-03-07T14:48:06.882Z,0.95
2023-03-07T14:50:40.026Z,1.33
2023-03-07T14:53:18.459Z,1.40
2023-03-07T14:55:50.128Z,1.60
2023-03-07T14:58:21.941Z,1.20
2023-03-07T15:01:00.839Z,2.03
2023-03-07T15:03:31.215Z,1.90
2023-03-07T15:06:03.255Z,1.50
2023-03-07T15:08:38.558Z,1.88
2023-03-07T15:11:13.997Z,0.50
2023-03-07T15:13:48.404Z,1.00
2023-03-07T15:16:24.147Z,1.10
2023-03-07T15:18:57.696Z,0.70
2023-03-07T15:21:29.104Z,4.18
2023-03-07T15:24:02.672Z,0.47
2023-03-07T15:26:33.234Z,0.90
2023-03-07T15:29:04.268Z,2.30
2023-03-07T15:31:34.473Z,2.53
2023-03-07T15:34:26.434Z,1.77
2023-03-07T15:36:56.799Z,2.03
2023-03-07T15:39:37.796Z,0.57
2023-03-07T15:42:08.905Z,0.50
2023-03-07T15:44:39.133Z,3.88
2023-03-07T15:47:18.288Z,1.10
2023-03-07T15:49:50.059Z,0.30
2023-03-07T15:52:28.337Z,0.82
2023-03-07T15:55:01.826Z,2.17
2023-03-07T15:57:35.015Z,1.55
2023-03-07T16:00:07.914Z,0.75
2023-03-07T16:02:44.148Z,2.55
2023-03-07T16:05:38.861Z,3.65
2023-03-07T16:08:14.627Z,0.45
2023-03-07T16:13:21.696Z,1.15
2023-03-07T16:16:05.009Z,2.53
2023-03-07T16:18:36.191Z,1.52
2023-03-07T16:21:05.834Z,3.70
2023-03-07T16:23:35.801Z,7.00
2023-03-07T16:26:08.615Z,15.80
2023-03-07T16:28:38.255Z,8.60
2023-03-07T16:31:13.899Z,11.20
2023-03-07T16:36:14.047Z,5.25
2023-03-07T16:38:44.407Z,2.47
2023-03-07T16:41:19.514Z,2.10
2023-03-07T16:43:50.298Z,2.03
2023-03-07T16:46:21.395Z,1.08
2023-03-07T16:48:51.007Z,1.15
2023-03-07T16:51:22.530Z,3.70
2023-03-07T16:53:53.291Z,1.48
2023-03-07T16:56:28.928Z,2.55
2023-03-07T17:01:28.967Z,2.97
2023-03-07T17:03:59.315Z,1.17
2023-03-07T17:06:38.850Z,1.58
2023-03-07T17:09:09.585Z,2.28
2023-03-07T17:11:43.066Z,1.85
2023-03-07T17:14:15.266Z,2.17
2023-03-07T17:16:47.255Z,1.92
2023-03-07T17:19:26.078Z,4.90
2023-03-07T17:21:56.224Z,7.28
2023-03-07T17:24:26.067Z,3.90
2023-03-07T17:27:01.014Z,3.70
2023-03-07T17:29:34.068Z,5.30
2023-03-07T17:32:04.137Z,6.68
2023-03-07T17:34:35.372Z,2.97
2023-03-07T17:37:06.159Z,2.85
2023-03-07T17:39:37.122Z,3.00
2023-03-07T17:42:09.715Z,5.60
2023-03-07T17:44:39.874Z,3.95
2023-03-07T17:47:09.798Z,9.27
2023-03-07T17:49:41.113Z,8.88
2023-03-07T17:52:14.743Z,6.75
2023-03-07T17:54:46.222Z,2.80
2023-03-07T17:57:18.955Z,3.47
2023-03-07T17:59:48.542Z,2.38
2023-03-07T18:02:18.799Z,2.42
2023-03-07T18:04:48.639Z,2.08
2023-03-07T18:07:19.820Z,3.42
2023-03-07T18:10:01.985Z,2.50
2023-03-07T18:12:39.497Z,3.42
2023-03-07T18:15:11.071Z,1.50
2023-03-07T18:17:47.733Z,3.83
2023-03-07T18:20:18.140Z,2.85
2023-03-07T18:22:48.002Z,2.67
2023-03-07T18:25:19.724Z,1.27
2023-03-07T18:27:52.209Z,3.28
2023-03-07T18:30:22.193Z,5.68
2023-03-07T18:32:51.807Z,8.02
2023-03-07T18:35:23.507Z,2.20
2023-03-07T18:37:53.236Z,3.85
2023-03-07T18:40:24.877Z,1.60
2023-03-07T18:42:59.427Z,2.65
2023-03-07T18:45:29.071Z,2.67
2023-03-07T18:47:58.625Z,5.22
2023-03-07T18:50:28.320Z,3.55
2023-03-07T18:52:59.754Z,1.75
2023-03-07T18:55:29.723Z,4.15
2023-03-07T18:58:02.169Z,3.55
2023-03-07T19:00:32.457Z,4.25
2023-03-07T19:03:02.103Z,6.43
2023-03-07T19:05:31.691Z,2.53
2023-03-07T19:08:01.298Z,2.60
2023-03-07T19:10:30.894Z,3.13
2023-03-07T19:13:03.006Z,2.80
2023-03-07T19:15:32.756Z,4.85
2023-03-07T19:18:02.422Z,3.22
2023-03-07T19:20:32.183Z,5.28
2023-03-07T19:23:01.880Z,1.88
2023-03-07T19:25:32.045Z,3.75
2023-03-07T19:28:04.245Z,2.33
2023-03-07T19:30:35.594Z,3.45
2023-03-07T19:33:05.220Z,5.57
2023-03-07T19:35:34.985Z,3.78
2023-03-07T19:38:04.565Z,4.70
2023-03-07T19:40:34.182Z,4.13
2023-03-07T19:43:06.357Z,3.60
2023-03-07T19:45:35.919Z,4.65
2023-03-07T19:48:06.157Z,3.17
2023-03-07T19:50:35.764Z,5.30
2023-03-07T19:53:05.452Z,3.35
2023-03-07T19:55:35.158Z,4.28
2023-03-07T19:58:07.334Z,3.08
2023-03-07T20:00:37.161Z,3.78
2023-03-07T20:03:07.718Z,3.40
2023-03-07T20:05:37.349Z,2.03
2023-03-07T20:08:07.421Z,6.50
2023-03-07T20:10:36.984Z,3.33
2023-03-07T20:13:10.394Z,3.45
2023-03-07T20:15:40.002Z,3.15
2023-03-07T20:18:11.269Z,3.00
2023-03-07T20:20:40.848Z,2.95
2023-03-07T20:23:10.425Z,1.60
2023-03-07T20:25:40.042Z,1.48
2023-03-07T20:28:12.564Z,2.38
2023-03-07T20:30:42.282Z,2.13
2023-03-07T20:33:11.905Z,3.17
2023-03-07T20:35:41.466Z,3.35
2023-03-07T20:38:11.335Z,2.85
2023-03-07T20:40:41.001Z,2.72
2023-03-07T20:43:13.203Z,2.90
2023-03-07T20:45:42.916Z,5.40
2023-03-07T20:48:12.451Z,4.07
2023-03-07T20:50:42.057Z,4.43
2023-03-07T20:53:11.612Z,3.42
2023-03-07T20:55:41.311Z,1.33
2023-03-07T20:58:13.611Z,2.58
2023-03-07T21:00:43.205Z,6.47
2023-03-07T21:03:13.893Z,3.03
2023-03-07T21:05:43.529Z,3.72
2023-03-07T21:08:13.301Z,5.75
2023-03-07T21:10:43.057Z,5.88
2023-03-07T21:13:15.300Z,2.25
2023-03-07T21:15:44.889Z,2.88
2023-03-07T21:18:14.547Z,1.77
2023-03-07T21:20:44.177Z,5.28
2023-03-07T21:23:13.737Z,2.58
2023-03-07T21:25:45.073Z,4.28
2023-03-07T21:28:17.201Z,8.73
2023-03-07T21:30:49.576Z,1.88
2023-03-07T21:33:19.333Z,3.90
2023-03-07T21:35:49.401Z,4.63
2023-03-07T21:38:18.974Z,2.65
2023-03-07T21:40:48.544Z,4.55
2023-03-07T21:43:20.729Z,2.30
2023-03-07T21:45:50.477Z,6.05
2023-03-07T21:48:20.348Z,7.03
2023-03-07T21:50:51.829Z,3.05
2023-03-07T21:53:21.859Z,2.08
2023-03-07T21:55:54.670Z,3.70
2023-03-07T21:58:27.737Z,3.25
2023-03-07T22:00:57.883Z,3.67
2023-03-07T22:03:29.217Z,3.33
2023-03-07T22:05:58.824Z,3.80
2023-03-07T22:08:28.462Z,3.03
2023-03-07T22:11:01.159Z,2.58
2023-03-07T22:13:35.895Z,3.95
2023-03-07T22:16:08.293Z,0.57
2023-03-07T22:18:38.473Z,4.32
2023-03-07T22:21:09.868Z,3.95
2023-03-07T22:23:39.799Z,6.28
2023-03-07T22:26:11.143Z,2.53
2023-03-07T22:28:43.649Z,2.70
2023-03-07T22:31:15.195Z,3.20
2023-03-07T22:33:45.087Z,2.47
2023-03-07T22:36:16.573Z,1.58
2023-03-07T22:38:47.231Z,4.25
2023-03-07T22:41:18.833Z,2.92
2023-03-07T22:43:52.493Z,2.33
2023-03-07T22:46:22.389Z,4.63
2023-03-07T22:48:54.761Z,2.95
2023-03-07T22:51:25.746Z,3.70
2023-03-07T22:53:55.661Z,1.95
2023-03-07T22:56:26.911Z,3.60
2023-03-07T22:58:59.220Z,1.10
2023-03-07T23:01:30.575Z,3.42
2023-03-07T23:04:02.488Z,2.70
2023-03-07T23:06:33.906Z,1.98
2023-03-07T23:09:03.816Z,2.35
2023-03-07T23:11:35.930Z,1.60
2023-03-07T23:14:08.086Z,2.00
2023-03-07T23:16:39.359Z,4.68
2023-03-07T23:19:08.964Z,2.85
2023-03-07T23:21:38.842Z,2.42
2023-03-07T23:24:09.213Z,4.32
2023-03-07T23:26:40.507Z,4.72
2023-03-07T23:29:12.971Z,4.72
2023-03-07T23:31:43.507Z,4.75
2023-03-07T23:34:18.404Z,2.25
2023-03-07T23:36:48.494Z,2.38
2023-03-07T23:39:19.153Z,2.72
2023-03-07T23:41:48.867Z,0.70
2023-03-07T23:44:21.022Z,0.90
2023-03-07T23:46:50.937Z,1.98
2023-03-07T23:49:20.973Z,1.00
2023-03-07T23:51:50.544Z,1.27
2023-03-07T23:54:20.099Z,2.35
2023-03-07T23:56:49.659Z,0.88
2023-03-07T23:59:21.888Z,1.73
